.
WxDataArchive / Data Records for 2011-11-30
2011-11-29 November 2011 2011-12-01

Data Records for Wednesday, 30 November 2011

Time	Temp	Chill	HIndex	Humid	Dewpt	 Wind 	HiWind	WindDir	Rain 	Barom 
-----	----	-----	------	-----	-----	------	------	-------	-----	----- 
00:00	32.1	32.1	32.1	95	30.8	2	5	270	0.00	29.780 
00:05	32.1	32.1	32.1	95	30.8	2	5	270	0.00	29.780 
00:10	32.1	32.1	32.1	95	30.8	1	4	270	0.00	29.780 
00:15	32.1	32.1	32.1	95	30.8	2	5	315	0.00	29.782 
00:20	32.1	32.1	32.1	95	30.8	2	5	270	0.00	29.782 
00:25	32.1	32.1	32.1	95	30.8	2	6	270	0.00	29.782 
00:30	32.1	32.1	32.1	95	30.8	2	4	292	0.00	29.785 
00:35	32.1	32.1	32.1	94	30.6	1	3	270	0.00	29.785 
00:40	32.1	32.1	32.1	94	30.6	2	3	315	0.00	29.785 
00:45	31.9	31.9	31.9	94	30.4	1	4	270	0.00	29.784 
00:50	31.9	31.9	31.9	94	30.4	1	3	315	0.00	29.784 
00:55	31.9	31.9	31.9	94	30.4	1	4	315	0.00	29.784 
01:00	31.8	31.8	31.8	94	30.3	1	4	315	0.00	29.787 
01:05	31.8	31.8	31.8	94	30.3	1	3	292	0.00	29.787 
01:10	31.6	31.6	31.6	94	30.1	2	5	270	0.00	29.787 
01:15	31.5	31.5	31.5	94	30.0	2	3	270	0.00	29.797 
01:20	31.5	31.5	31.5	94	30.0	2	4	315	0.00	29.797 
01:25	31.3	31.3	31.3	94	29.8	1	5	315	0.00	29.797 
01:30	31.2	31.2	31.2	94	29.7	1	3	315	0.00	29.796 
01:35	31.0	31.0	31.0	94	29.5	1	4	270	0.00	29.796 
01:40	30.9	30.9	30.9	94	29.4	2	4	315	0.00	29.796 
01:45	30.9	30.9	30.9	94	29.4	1	3	338	0.00	29.801 
01:50	30.9	30.9	30.9	94	29.4	2	4	270	0.00	29.801 
01:55	30.9	30.9	30.9	94	29.4	1	4	270	0.00	29.801 
02:00	30.7	30.7	30.7	94	29.2	1	3	270	0.00	29.814 
02:05	30.7	30.7	30.7	94	29.2	1	3	270	0.00	29.814 
02:10	30.7	30.7	30.7	93	28.9	1	4	270	0.00	29.814 
02:15	30.7	30.7	30.7	93	28.9	1	2	338	0.00	29.817 
02:20	30.9	30.9	30.9	93	29.1	1	3	315	0.00	29.817 
02:25	30.9	30.9	30.9	93	29.1	1	3	315	0.00	29.817 
02:30	30.9	30.9	30.9	93	29.1	1	3	270	0.00	29.823 
02:35	30.9	30.9	30.9	93	29.1	1	4	315	0.00	29.823 
02:40	30.9	30.9	30.9	93	29.1	2	6	315	0.00	29.823 
02:45	30.9	30.9	30.9	92	28.9	2	4	315	0.00	29.825 
02:50	30.7	30.7	30.7	92	28.7	1	3	292	0.00	29.825 
02:55	30.7	30.7	30.7	92	28.7	1	4	315	0.00	29.825 
03:00	30.7	30.7	30.7	92	28.7	2	5	315	0.00	29.833 
03:05	30.6	30.6	30.6	91	28.3	1	4	270	0.00	29.833 
03:10	30.6	30.6	30.6	91	28.3	2	4	338	0.00	29.833 
03:15	30.6	30.6	30.6	91	28.3	1	4	315	0.00	29.833 
03:20	30.4	30.4	30.4	91	28.1	1	3	292	0.00	29.833 
03:25	30.4	30.4	30.4	90	27.8	1	3	315	0.00	29.833 
03:30	30.4	30.4	30.4	90	27.8	1	3	315	0.00	29.842 
03:35	30.3	30.3	30.3	90	27.7	2	5	292	0.00	29.842 
03:40	30.3	30.3	30.3	90	27.7	1	4	270	0.00	29.842 
03:45	30.3	30.3	30.3	89	27.5	1	4	270	0.00	29.840 
03:50	30.3	30.3	30.3	89	27.5	1	3	292	0.00	29.840 
03:55	30.3	30.3	30.3	89	27.5	1	2	315	0.00	29.840 
04:00	30.1	30.1	30.1	89	27.3	1	3	315	0.00	29.842 
04:05	30.1	30.1	30.1	89	27.3	1	2	338	0.00	29.842 
04:10	30.1	30.1	30.1	88	27.0	1	2	292	0.00	29.842 
04:15	30.1	30.1	30.1	88	27.0	1	2	292	0.00	29.836 
04:20	30.0	30.0	30.0	88	26.9	1	3	292	0.00	29.836 
04:25	30.0	30.0	30.0	88	26.9	1	3	292	0.00	29.836 
04:30	30.0	30.0	30.0	88	26.9	1	3	270	0.00	29.851 
04:35	30.0	30.0	30.0	87	26.6	1	3	338	0.00	29.851 
04:40	30.0	30.0	30.0	87	26.6	1	4	338	0.00	29.851 
04:45	30.0	30.0	30.0	87	26.6	1	2	292	0.00	29.862 
04:50	30.0	30.0	30.0	86	26.3	1	3	292	0.00	29.862 
04:55	30.0	30.0	30.0	86	26.3	1	3	315	0.00	29.862 
05:00	30.0	30.0	30.0	86	26.3	1	4	292	0.00	29.866 
05:05	30.0	30.0	30.0	86	26.3	1	3	338	0.00	29.866 
05:10	30.1	30.1	30.1	86	26.4	1	3	270	0.00	29.866 
05:15	30.1	30.1	30.1	86	26.4	1	2	292	0.00	29.873 
05:20	30.1	30.1	30.1	86	26.4	0	1	292	0.00	29.873 
05:25	30.0	30.0	30.0	86	26.3	0	2	292	0.00	29.873 
05:30	30.0	30.0	30.0	86	26.3	0	2	292	0.00	29.883 
05:35	30.0	30.0	30.0	87	26.6	1	2	292	0.00	29.883 
05:40	30.0	30.0	30.0	87	26.6	0	2	292	0.00	29.883 
05:45	30.0	30.0	30.0	87	26.6	0	2	270	0.00	29.889 
05:50	30.0	30.0	30.0	87	26.6	1	2	270	0.00	29.889 
05:55	30.0	30.0	30.0	87	26.6	1	2	270	0.00	29.889 
06:00	29.8	29.8	29.8	87	26.4	1	2	270	0.00	29.894 
06:05	29.7	29.7	29.7	87	26.3	0	1	270	0.00	29.894 
06:10	29.5	29.5	29.5	87	26.1	0	2	270	0.00	29.894 
06:15	29.5	29.5	29.5	87	26.1	0	1	270	0.00	29.899 
06:20	29.4	29.4	29.4	88	26.3	0	1	270	0.00	29.899 
06:25	29.3	29.3	29.3	88	26.2	0	1	270	0.00	29.899 
06:30	29.1	29.1	29.1	88	26.0	0	0	---	0.00	29.904 
06:35	29.0	29.0	29.0	88	25.9	0	1	270	0.00	29.904 
06:40	28.8	28.8	28.8	88	25.7	0	1	270	0.00	29.904 
06:45	28.7	28.7	28.7	88	25.6	0	0	---	0.00	29.914 
06:50	28.5	28.5	28.5	88	25.4	0	0	---	0.00	29.914 
06:55	28.5	28.5	28.5	89	25.7	0	0	---	0.00	29.914 
07:00	28.4	28.4	28.4	89	25.6	0	0	---	0.00	29.928 
07:05	28.4	28.4	28.4	89	25.6	0	0	---	0.00	29.928 
07:10	28.4	28.4	28.4	89	25.6	0	1	270	0.00	29.928 
07:15	28.4	28.4	28.4	90	25.8	0	1	270	0.00	29.939 
07:20	28.5	28.5	28.5	90	25.9	0	1	270	0.00	29.939 
07:25	28.7	28.7	28.7	90	26.1	0	0	---	0.00	29.939 
07:30	28.7	28.7	28.7	90	26.1	0	0	---	0.00	29.943 
07:35	28.5	28.5	28.5	90	25.9	0	0	---	0.00	29.943 
07:40	28.5	28.5	28.5	90	25.9	0	0	---	0.00	29.943 
07:45	28.5	28.5	28.5	90	25.9	0	0	---	0.00	29.948 
07:50	28.4	28.4	28.4	90	25.8	0	0	---	0.00	29.948 
07:55	28.4	28.4	28.4	90	25.8	0	0	---	0.00	29.948 
08:00	28.2	28.2	28.2	90	25.7	0	0	---	0.00	29.958 
08:05	28.1	28.1	28.1	90	25.6	0	0	---	0.00	29.958 
08:10	28.1	28.1	28.1	90	25.6	0	0	---	0.00	29.958 
08:15	28.1	28.1	28.1	90	25.6	0	0	---	0.00	29.963 
08:20	28.2	28.2	28.2	91	25.9	0	0	---	0.00	29.963 
08:25	28.2	28.2	28.2	91	25.9	0	0	---	0.00	29.963 
08:30	28.5	28.5	28.5	91	26.2	0	0	---	0.00	29.973 
08:35	28.7	28.7	28.7	91	26.4	0	1	270	0.00	29.973 
08:40	29.1	29.1	29.1	91	26.8	0	0	---	0.00	29.973 
08:45	29.4	29.4	29.4	91	27.1	0	0	---	0.00	29.978 
08:50	29.7	29.7	29.7	91	27.4	0	1	270	0.00	29.978 
08:55	30.0	30.0	30.0	92	28.0	0	2	270	0.00	29.978 
09:00	30.4	30.4	30.4	92	28.4	1	2	270	0.00	29.984 
09:05	30.9	30.9	30.9	92	28.9	1	3	270	0.00	29.984 
09:10	31.3	31.3	31.3	91	29.0	1	3	292	0.00	29.984 
09:15	31.8	31.8	31.8	91	29.5	1	3	248	0.00	29.990 
09:20	32.1	32.1	32.1	90	29.5	1	2	248	0.00	29.990 
09:25	32.4	32.4	32.4	90	29.8	2	3	248	0.00	29.990 
09:30	32.7	32.7	32.7	89	29.8	1	2	270	0.00	29.992 
09:35	32.8	32.8	32.8	89	29.9	1	2	270	0.00	29.992 
09:40	32.9	32.9	32.9	88	29.7	1	3	248	0.00	29.992 
09:45	33.1	33.1	33.1	88	29.9	1	3	248	0.00	30.003 
09:50	33.1	33.1	33.1	88	29.9	1	3	248	0.00	30.003 
09:55	33.2	33.2	33.2	88	30.0	1	4	270	0.00	30.003 
10:00	33.4	33.4	33.4	87	30.0	1	3	270	0.00	30.006 
10:05	33.5	33.5	33.5	87	30.1	1	2	270	0.00	30.006 
10:10	33.5	33.5	33.5	87	30.1	1	2	270	0.00	30.006 
10:15	33.7	33.7	33.7	87	30.3	1	2	270	0.00	30.018 
10:20	33.7	33.7	33.7	86	30.0	1	3	270	0.00	30.018 
10:25	33.8	33.8	33.8	86	30.1	1	2	270	0.00	30.018 
10:30	34.0	34.0	34.0	86	30.3	1	3	270	0.00	30.024 
10:35	34.1	34.1	34.1	86	30.4	1	2	225	0.00	30.024 
10:40	34.3	34.3	34.3	85	30.3	1	3	315	0.00	30.024 
10:45	34.4	34.4	34.4	85	30.4	1	2	315	0.00	30.027 
10:50	34.6	34.6	34.6	85	30.6	1	4	315	0.00	30.027 
10:55	34.9	34.9	34.9	85	30.9	0	2	270	0.00	30.027 
11:00	35.0	35.0	35.0	85	31.0	1	3	270	0.00	30.034 
11:05	35.0	35.0	35.0	84	30.7	2	5	248	0.00	30.034 
11:10	35.2	35.2	35.2	84	30.9	2	5	248	0.00	30.034 
11:15	35.2	35.2	35.2	84	30.9	2	4	248	0.00	30.037 
11:20	35.3	35.3	35.3	84	31.0	2	4	248	0.00	30.037 
11:25	35.3	35.3	35.3	84	31.0	2	4	248	0.00	30.037 
11:30	35.5	35.5	35.5	84	31.2	2	5	270	0.00	30.035 
11:35	35.5	35.5	35.5	83	30.9	2	4	292	0.00	30.035 
11:40	35.6	35.6	35.6	84	31.3	1	3	292	0.00	30.035 
11:45	35.8	35.8	35.8	83	31.2	3	6	270	0.00	30.036 
11:50	35.8	35.8	35.8	83	31.2	3	7	270	0.00	30.036 
11:55	35.9	35.9	35.9	82	31.0	3	6	248	0.00	30.036 
12:00	35.9	35.9	35.9	82	31.0	2	5	270	0.00	30.038 
12:05	36.2	36.2	36.2	82	31.2	1	4	315	0.00	30.038 
12:10	36.3	36.3	36.3	82	31.3	2	4	292	0.00	30.038 
12:15	36.3	36.3	36.3	81	31.0	2	4	270	0.00	30.037 
12:20	36.5	36.5	36.5	81	31.2	2	6	248	0.01	30.037 
12:25	36.6	36.6	36.6	81	31.3	2	5	270	0.00	30.037 
12:30	36.6	36.6	36.6	80	31.0	3	5	270	0.00	30.038 
12:35	36.8	36.8	36.8	81	31.5	2	7	270	0.00	30.038 
12:40	36.8	36.8	36.8	80	31.2	3	5	270	0.00	30.038 
12:45	36.9	36.9	36.9	80	31.3	2	6	248	0.01	30.036 
12:50	36.9	36.9	36.9	80	31.3	3	5	248	0.00	30.036 
12:55	37.0	37.0	37.0	79	31.1	2	4	292	0.01	30.036 
13:00	36.9	36.9	36.9	79	31.0	3	6	270	0.00	30.037 
13:05	36.9	36.9	36.9	79	31.0	3	5	248	0.00	30.037 
13:10	36.9	36.9	36.9	78	30.7	3	7	270	0.01	30.037 
13:15	37.0	37.0	37.0	78	30.8	3	5	270	0.00	30.041 
13:20	37.2	37.2	37.2	78	31.0	3	6	248	0.00	30.041 
13:25	37.2	37.2	37.2	77	30.7	3	6	270	0.01	30.041 
13:30	37.3	37.3	37.3	78	31.1	2	5	270	0.00	30.045 
13:35	37.3	37.3	37.3	76	30.4	3	5	270	0.00	30.045 
13:40	37.3	37.3	37.3	76	30.4	3	5	270	0.00	30.045 
13:45	37.6	37.6	37.6	77	31.1	2	4	270	0.01	30.047 
13:50	37.8	37.8	37.8	77	31.2	2	5	292	0.00	30.047 
13:55	37.9	37.9	37.9	76	31.0	3	5	248	0.00	30.047 
14:00	37.9	37.9	37.9	76	31.0	3	6	270	0.01	30.048 
14:05	37.9	37.9	37.9	75	30.7	3	6	270	0.00	30.048 
14:10	37.9	37.9	37.9	75	30.7	2	6	292	0.00	30.048 
14:15	38.0	38.0	38.0	75	30.8	3	5	248	0.00	30.048 
14:20	38.2	38.2	38.2	75	31.0	3	5	270	0.01	30.048 
14:25	38.2	38.2	38.2	74	30.7	2	6	270	0.00	30.048 
14:30	38.2	38.2	38.2	74	30.7	2	6	270	0.00	30.052 
14:35	38.3	38.3	38.3	74	30.8	2	4	248	0.01	30.052 
14:40	38.2	38.2	38.2	75	31.0	3	6	248	0.00	30.052 
14:45	37.8	37.8	37.8	75	30.6	3	4	248	0.00	30.060 
14:50	37.5	37.5	37.5	77	31.0	2	4	248	0.00	30.060 
14:55	37.2	37.2	37.2	77	30.7	1	4	270	0.00	30.060 
15:00	37.0	37.0	37.0	77	30.5	2	5	270	0.00	30.066 
15:05	36.9	36.9	36.9	78	30.7	2	4	248	0.01	30.066 
15:10	36.8	36.8	36.8	78	30.6	2	5	248	0.00	30.066 
15:15	36.8	36.8	36.8	78	30.6	1	4	248	0.00	30.071 
15:20	36.9	36.9	36.9	78	30.7	2	3	248	0.00	30.071 
15:25	36.8	36.8	36.8	78	30.6	2	5	248	0.01	30.071 
15:30	36.8	36.8	36.8	78	30.6	1	3	248	0.00	30.084 
15:35	36.5	36.5	36.5	77	30.0	2	4	248	0.00	30.084 
15:40	36.5	36.5	36.5	78	30.3	2	4	248	0.00	30.084 
15:45	36.2	36.2	36.2	78	30.0	2	3	248	0.00	30.086 
15:50	36.2	36.2	36.2	78	30.0	1	5	248	0.01	30.086 
15:55	36.0	36.0	36.0	78	29.8	2	3	248	0.00	30.086 
16:00	35.9	35.9	35.9	78	29.7	2	3	270	0.00	30.090 
16:05	35.9	35.9	35.9	79	30.0	1	4	248	0.00	30.090 
16:10	35.8	35.8	35.8	78	29.6	2	4	248	0.00	30.090 
16:15	35.6	35.6	35.6	78	29.4	2	4	248	0.00	30.099 
16:20	35.5	35.5	35.5	79	29.6	1	4	270	0.00	30.099 
16:25	35.3	35.3	35.3	79	29.4	1	5	225	0.00	30.099 
16:30	35.2	35.2	35.2	79	29.4	1	4	225	0.00	30.101 
16:35	35.2	35.2	35.2	79	29.4	1	3	248	0.01	30.101 
16:40	34.9	34.9	34.9	79	29.1	1	3	248	0.00	30.101 
16:45	34.9	34.9	34.9	79	29.1	1	3	248	0.00	30.106 
16:50	34.7	34.7	34.7	80	29.2	0	3	248	0.00	30.106 
16:55	34.6	34.6	34.6	80	29.1	0	1	248	0.00	30.106 
17:00	34.4	34.4	34.4	81	29.2	0	1	248	0.00	30.113 
17:05	34.1	34.1	34.1	81	28.9	1	5	248	0.00	30.113 
17:10	34.0	34.0	34.0	81	28.8	1	3	248	0.00	30.113 
17:15	33.8	33.8	33.8	81	28.6	0	2	248	0.00	30.118 
17:20	33.5	33.5	33.5	81	28.3	0	2	248	0.00	30.118 
17:25	33.4	33.4	33.4	82	28.5	0	2	248	0.00	30.118 
17:30	33.2	33.2	33.2	82	28.3	0	1	248	0.00	30.126 
17:35	33.1	33.1	33.1	82	28.2	0	1	248	0.00	30.126 
17:40	32.9	32.9	32.9	83	28.3	0	2	248	0.00	30.126 
17:45	32.8	32.8	32.8	83	28.2	0	1	248	0.00	30.133 
17:50	32.7	32.7	32.7	84	28.4	0	2	248	0.00	30.133 
17:55	32.7	32.7	32.7	84	28.4	0	1	248	0.00	30.133 
18:00	32.5	32.5	32.5	84	28.2	0	2	248	0.00	30.136 
18:05	32.5	32.5	32.5	84	28.2	0	1	248	0.00	30.136 
18:10	32.4	32.4	32.4	84	28.1	0	2	248	0.00	30.136 
18:15	32.4	32.4	32.4	84	28.1	0	2	248	0.00	30.149 
18:20	32.4	32.4	32.4	84	28.1	1	2	248	0.00	30.149 
18:25	32.2	32.2	32.2	84	27.9	0	1	248	0.00	30.149 
18:30	32.2	32.2	32.2	84	27.9	0	3	248	0.00	30.152 
18:35	32.1	32.1	32.1	84	27.8	0	2	248	0.00	30.152 
18:40	32.1	32.1	32.1	84	27.8	0	2	248	0.00	30.152 
18:45	31.9	31.9	31.9	84	27.6	0	2	248	0.00	30.156 
18:50	31.8	31.8	31.8	85	27.8	0	2	248	0.00	30.156 
18:55	31.8	31.8	31.8	85	27.8	0	2	248	0.00	30.156 
19:00	31.8	31.8	31.8	85	27.8	0	1	248	0.00	30.164 
19:05	31.6	31.6	31.6	85	27.6	0	3	248	0.00	30.164 
19:10	31.6	31.6	31.6	85	27.6	0	2	248	0.00	30.164 
19:15	31.5	31.5	31.5	85	27.5	0	3	248	0.00	30.169 
19:20	31.5	31.5	31.5	85	27.5	0	2	248	0.00	30.169 
19:25	31.5	31.5	31.5	85	27.5	0	2	248	0.00	30.169 
19:30	31.3	31.3	31.3	85	27.3	0	1	248	0.00	30.172 
19:35	31.2	31.2	31.2	85	27.2	0	1	248	0.00	30.172 
19:40	31.0	31.0	31.0	86	27.3	0	0	---	0.00	30.172 
19:45	30.7	30.7	30.7	86	27.0	0	1	248	0.00	30.173 
19:50	30.6	30.6	30.6	86	26.9	0	1	248	0.00	30.173 
19:55	30.4	30.4	30.4	87	27.0	0	1	248	0.00	30.173 
20:00	30.4	30.4	30.4	87	27.0	0	1	248	0.00	30.175 
20:05	30.4	30.4	30.4	87	27.0	0	1	248	0.00	30.175 
20:10	30.3	30.3	30.3	87	26.9	0	1	248	0.00	30.175 
20:15	30.1	30.1	30.1	88	27.0	0	0	---	0.00	30.173 
20:20	30.1	30.1	30.1	88	27.0	0	1	248	0.00	30.173 
20:25	30.0	30.0	30.0	88	26.9	0	0	---	0.00	30.173 
20:30	29.8	29.8	29.8	88	26.7	0	0	---	0.00	30.172 
20:35	29.7	29.7	29.7	88	26.6	0	1	248	0.00	30.172 
20:40	29.7	29.7	29.7	88	26.6	0	1	248	0.00	30.172 
20:45	29.7	29.7	29.7	89	26.9	0	1	248	0.00	30.170 
20:50	29.7	29.7	29.7	89	26.9	0	1	248	0.00	30.170 
20:55	29.5	29.5	29.5	89	26.7	0	1	248	0.00	30.170 
21:00	29.5	29.5	29.5	89	26.7	0	0	---	0.00	30.179 
21:05	29.4	29.4	29.4	89	26.6	0	1	248	0.00	30.179 
21:10	29.4	29.4	29.4	89	26.6	0	0	---	0.00	30.179 
21:15	29.3	29.3	29.3	89	26.5	0	0	---	0.00	30.179 
21:20	29.1	29.1	29.1	89	26.3	0	0	---	0.00	30.179 
21:25	29.1	29.1	29.1	89	26.3	0	1	248	0.00	30.179 
21:30	29.1	29.1	29.1	90	26.5	0	1	248	0.00	30.179 
21:35	29.3	29.3	29.3	90	26.7	0	1	248	0.00	30.179 
21:40	29.3	29.3	29.3	90	26.7	0	1	248	0.00	30.179 
21:45	29.4	29.4	29.4	90	26.8	0	1	248	0.00	30.182 
21:50	29.4	29.4	29.4	90	26.8	0	1	248	0.00	30.182 
21:55	29.4	29.4	29.4	90	26.8	0	0	---	0.00	30.182 
22:00	29.3	29.3	29.3	90	26.7	0	0	---	0.00	30.179 
22:05	29.3	29.3	29.3	90	26.7	0	1	248	0.00	30.179 
22:10	29.1	29.1	29.1	90	26.5	0	1	248	0.00	30.179 
22:15	29.1	29.1	29.1	90	26.5	0	0	---	0.00	30.180 
22:20	29.0	29.0	29.0	90	26.4	0	1	248	0.00	30.180 
22:25	28.8	28.8	28.8	89	26.0	0	0	---	0.00	30.180 
22:30	28.7	28.7	28.7	90	26.1	0	0	---	0.00	30.182 
22:35	28.5	28.5	28.5	90	25.9	0	0	---	0.00	30.182 
22:40	28.4	28.4	28.4	90	25.8	0	0	---	0.00	30.182 
22:45	28.2	28.2	28.2	90	25.7	0	0	---	0.00	30.192 
22:50	28.1	28.1	28.1	90	25.6	0	0	---	0.00	30.192 
22:55	27.9	27.9	27.9	90	25.4	0	0	---	0.00	30.192 
23:00	27.8	27.8	27.8	90	25.3	0	0	---	0.00	30.203 
23:05	27.6	27.6	27.6	90	25.1	0	0	---	0.00	30.203 
23:10	27.6	27.6	27.6	90	25.1	0	0	---	0.00	30.203 
23:15	27.5	27.5	27.5	90	25.0	0	0	---	0.00	30.213 
23:20	27.3	27.3	27.3	90	24.8	0	0	---	0.00	30.213 
23:25	27.0	27.0	27.0	90	24.5	0	0	---	0.00	30.213 
23:30	26.9	26.9	26.9	90	24.4	0	0	---	0.00	30.202 
23:35	26.7	26.7	26.7	90	24.2	0	0	---	0.00	30.202 
23:40	26.6	26.6	26.6	90	24.1	0	0	---	0.00	30.202 
23:45	26.6	26.6	26.6	90	24.1	0	0	---	0.00	30.208 
23:50	26.9	26.9	26.9	91	24.6	0	1	248	0.00	30.208 
23:55	27.0	27.0	27.0	91	24.7	0	0	---	0.00	30.208 

CoCoRaHS
IN-AL-39
A2 Web Hosting
Creative Commons License
GoDaddy
search engine by freefind advanced

loaded 2018-11-17 11:54:41 • last modified 2010-11-18 10:43:29
Privacy PolicyDisclaimer
• wx.awcolley.com is powered by PmWiki v.2002016 •
• all content (unless otherwise noted) © 2018 A W Colley